sensor_id;sensor_type;location;lat;lon;timestamp;P1;durP1;ratioP1;P2;durP2;ratioP2
73893;SDS011;62699;50.534;12.784;2023-02-05T00:02:34;9.72;;;5.60;;
73893;SDS011;62699;50.534;12.784;2023-02-05T00:07:34;11.80;;;5.80;;
73893;SDS011;62699;50.534;12.784;2023-02-05T00:12:34;9.95;;;5.10;;
73893;SDS011;62699;50.534;12.784;2023-02-05T00:17:35;10.48;;;5.90;;
73893;SDS011;62699;50.534;12.784;2023-02-05T00:22:36;12.00;;;5.85;;
73893;SDS011;62699;50.534;12.784;2023-02-05T00:27:36;9.70;;;6.07;;
73893;SDS011;62699;50.534;12.784;2023-02-05T00:32:36;11.77;;;5.65;;
73893;SDS011;62699;50.534;12.784;2023-02-05T00:37:36;12.75;;;5.65;;
73893;SDS011;62699;50.534;12.784;2023-02-05T00:42:37;10.45;;;5.57;;
73893;SDS011;62699;50.534;12.784;2023-02-05T00:47:37;8.90;;;5.05;;
73893;SDS011;62699;50.534;12.784;2023-02-05T00:52:37;10.02;;;5.03;;
73893;SDS011;62699;50.534;12.784;2023-02-05T00:57:37;8.93;;;5.15;;
73893;SDS011;62699;50.534;12.784;2023-02-05T01:02:37;10.10;;;5.53;;
73893;SDS011;62699;50.534;12.784;2023-02-05T01:07:38;10.13;;;5.07;;
73893;SDS011;62699;50.534;12.784;2023-02-05T01:12:40;7.85;;;4.82;;
73893;SDS011;62699;50.534;12.784;2023-02-05T01:17:40;8.20;;;5.40;;
73893;SDS011;62699;50.534;12.784;2023-02-05T01:22:40;11.35;;;6.20;;
73893;SDS011;62699;50.534;12.784;2023-02-05T01:27:41;9.88;;;5.70;;
73893;SDS011;62699;50.534;12.784;2023-02-05T01:32:41;12.18;;;5.24;;
73893;SDS011;62699;50.534;12.784;2023-02-05T01:37:42;7.88;;;4.88;;
73893;SDS011;62699;50.534;12.784;2023-02-05T01:42:42;10.07;;;4.85;;
73893;SDS011;62699;50.534;12.784;2023-02-05T01:47:42;10.35;;;5.95;;
73893;SDS011;62699;50.534;12.784;2023-02-05T01:52:43;9.15;;;5.15;;
73893;SDS011;62699;50.534;12.784;2023-02-05T01:57:44;8.10;;;5.18;;
73893;SDS011;62699;50.534;12.784;2023-02-05T02:02:45;11.38;;;5.22;;
73893;SDS011;62699;50.534;12.784;2023-02-05T02:07:46;9.90;;;4.95;;
73893;SDS011;62699;50.534;12.784;2023-02-05T02:12:46;9.63;;;5.35;;
73893;SDS011;62699;50.534;12.784;2023-02-05T02:17:49;10.20;;;5.78;;
73893;SDS011;62699;50.534;12.784;2023-02-05T02:39:04;8.77;;;4.97;;
73893;SDS011;62699;50.534;12.784;2023-02-05T02:44:13;7.72;;;4.90;;
73893;SDS011;62699;50.534;12.784;2023-02-05T02:49:22;10.95;;;5.75;;
73893;SDS011;62699;50.534;12.784;2023-02-05T02:54:40;11.18;;;4.80;;
73893;SDS011;62699;50.534;12.784;2023-02-05T02:59:44;9.20;;;4.40;;
73893;SDS011;62699;50.534;12.784;2023-02-05T03:04:55;9.82;;;4.57;;
73893;SDS011;62699;50.534;12.784;2023-02-05T03:10:02;6.13;;;3.75;;
73893;SDS011;62699;50.534;12.784;2023-02-05T03:15:23;10.43;;;4.35;;
73893;SDS011;62699;50.534;12.784;2023-02-05T03:20:27;8.20;;;4.95;;
73893;SDS011;62699;50.534;12.784;2023-02-05T03:25:31;9.37;;;4.33;;
73893;SDS011;62699;50.534;12.784;2023-02-05T03:30:35;9.30;;;4.45;;
73893;SDS011;62699;50.534;12.784;2023-02-05T03:35:45;8.80;;;4.30;;
73893;SDS011;62699;50.534;12.784;2023-02-05T03:41:05;7.55;;;4.32;;
73893;SDS011;62699;50.534;12.784;2023-02-05T03:51:43;9.55;;;5.07;;
73893;SDS011;62699;50.534;12.784;2023-02-05T03:56:54;8.02;;;4.38;;
73893;SDS011;62699;50.534;12.784;2023-02-05T04:01:59;8.88;;;5.43;;
73893;SDS011;62699;50.534;12.784;2023-02-05T04:07:03;9.65;;;5.22;;
73893;SDS011;62699;50.534;12.784;2023-02-05T04:12:03;7.68;;;4.60;;
73893;SDS011;62699;50.534;12.784;2023-02-05T04:17:04;9.95;;;4.60;;
73893;SDS011;62699;50.534;12.784;2023-02-05T04:22:04;10.82;;;4.82;;
73893;SDS011;62699;50.534;12.784;2023-02-05T04:27:04;7.20;;;4.35;;
73893;SDS011;62699;50.534;12.784;2023-02-05T04:32:05;8.20;;;4.57;;
73893;SDS011;62699;50.534;12.784;2023-02-05T04:37:06;9.38;;;4.80;;
73893;SDS011;62699;50.534;12.784;2023-02-05T04:42:06;8.88;;;4.30;;
73893;SDS011;62699;50.534;12.784;2023-02-05T04:47:06;7.35;;;4.30;;
73893;SDS011;62699;50.534;12.784;2023-02-05T04:52:18;8.38;;;4.13;;
73893;SDS011;62699;50.534;12.784;2023-02-05T04:57:18;7.18;;;4.60;;
73893;SDS011;62699;50.534;12.784;2023-02-05T05:02:18;11.84;;;5.08;;
73893;SDS011;62699;50.534;12.784;2023-02-05T05:07:19;7.30;;;4.40;;
73893;SDS011;62699;50.534;12.784;2023-02-05T05:12:19;7.57;;;4.15;;
73893;SDS011;62699;50.534;12.784;2023-02-05T05:17:19;8.50;;;4.63;;
73893;SDS011;62699;50.534;12.784;2023-02-05T05:22:20;8.70;;;4.43;;
73893;SDS011;62699;50.534;12.784;2023-02-05T05:27:20;8.13;;;4.53;;
73893;SDS011;62699;50.534;12.784;2023-02-05T05:32:22;12.25;;;4.53;;
73893;SDS011;62699;50.534;12.784;2023-02-05T05:37:22;9.35;;;4.65;;
73893;SDS011;62699;50.534;12.784;2023-02-05T05:42:22;8.48;;;3.80;;
73893;SDS011;62699;50.534;12.784;2023-02-05T05:52:42;6.65;;;3.72;;
73893;SDS011;62699;50.534;12.784;2023-02-05T05:57:42;9.80;;;4.57;;
73893;SDS011;62699;50.534;12.784;2023-02-05T06:02:42;7.32;;;4.13;;
73893;SDS011;62699;50.534;12.784;2023-02-05T06:07:43;7.30;;;4.30;;
73893;SDS011;62699;50.534;12.784;2023-02-05T06:12:43;8.52;;;4.36;;
73893;SDS011;62699;50.534;12.784;2023-02-05T06:17:44;7.60;;;4.18;;
73893;SDS011;62699;50.534;12.784;2023-02-05T06:22:44;8.25;;;4.32;;
73893;SDS011;62699;50.534;12.784;2023-02-05T06:27:45;7.93;;;4.10;;
73893;SDS011;62699;50.534;12.784;2023-02-05T06:32:45;8.05;;;3.92;;
73893;SDS011;62699;50.534;12.784;2023-02-05T06:37:45;8.43;;;3.95;;
73893;SDS011;62699;50.534;12.784;2023-02-05T06:42:46;6.45;;;3.95;;
73893;SDS011;62699;50.534;12.784;2023-02-05T06:47:46;7.28;;;3.83;;
73893;SDS011;62699;50.534;12.784;2023-02-05T06:52:47;7.43;;;3.60;;
73893;SDS011;62699;50.534;12.784;2023-02-05T06:57:47;8.15;;;3.80;;
73893;SDS011;62699;50.534;12.784;2023-02-05T07:02:48;7.35;;;3.85;;
73893;SDS011;62699;50.534;12.784;2023-02-05T07:07:48;8.32;;;3.94;;
73893;SDS011;62699;50.534;12.784;2023-02-05T07:13:00;9.98;;;3.72;;
73893;SDS011;62699;50.534;12.784;2023-02-05T07:18:00;6.28;;;3.40;;
73893;SDS011;62699;50.534;12.784;2023-02-05T07:23:01;6.75;;;4.05;;
73893;SDS011;62699;50.534;12.784;2023-02-05T07:28:01;4.60;;;2.63;;
73893;SDS011;62699;50.534;12.784;2023-02-05T07:33:06;4.72;;;3.25;;
73893;SDS011;62699;50.534;12.784;2023-02-05T07:38:06;6.57;;;3.22;;
73893;SDS011;62699;50.534;12.784;2023-02-05T07:43:06;5.43;;;3.22;;
73893;SDS011;62699;50.534;12.784;2023-02-05T07:48:07;4.22;;;3.20;;
73893;SDS011;62699;50.534;12.784;2023-02-05T07:53:07;5.40;;;2.90;;
73893;SDS011;62699;50.534;12.784;2023-02-05T07:58:07;4.00;;;2.83;;
73893;SDS011;62699;50.534;12.784;2023-02-05T08:03:07;5.55;;;3.30;;
73893;SDS011;62699;50.534;12.784;2023-02-05T08:08:08;5.07;;;2.95;;
73893;SDS011;62699;50.534;12.784;2023-02-05T08:13:10;3.88;;;2.60;;
73893;SDS011;62699;50.534;12.784;2023-02-05T08:18:11;9.85;;;5.45;;
73893;SDS011;62699;50.534;12.784;2023-02-05T08:23:11;4.32;;;3.24;;
73893;SDS011;62699;50.534;12.784;2023-02-05T08:28:11;5.50;;;3.33;;
73893;SDS011;62699;50.534;12.784;2023-02-05T08:33:12;5.20;;;3.05;;
73893;SDS011;62699;50.534;12.784;2023-02-05T08:38:12;6.70;;;2.78;;
73893;SDS011;62699;50.534;12.784;2023-02-05T08:43:13;4.90;;;3.17;;
73893;SDS011;62699;50.534;12.784;2023-02-05T08:48:13;6.95;;;3.33;;
73893;SDS011;62699;50.534;12.784;2023-02-05T08:53:13;6.15;;;3.15;;
73893;SDS011;62699;50.534;12.784;2023-02-05T08:58:14;6.70;;;3.40;;
73893;SDS011;62699;50.534;12.784;2023-02-05T09:03:14;7.34;;;3.64;;
73893;SDS011;62699;50.534;12.784;2023-02-05T09:08:14;6.93;;;3.88;;
73893;SDS011;62699;50.534;12.784;2023-02-05T09:13:15;8.27;;;3.30;;
73893;SDS011;62699;50.534;12.784;2023-02-05T09:18:15;6.90;;;4.03;;
73893;SDS011;62699;50.534;12.784;2023-02-05T09:23:16;5.55;;;3.58;;
73893;SDS011;62699;50.534;12.784;2023-02-05T09:28:17;9.00;;;4.40;;
73893;SDS011;62699;50.534;12.784;2023-02-05T09:33:17;5.72;;;3.28;;
73893;SDS011;62699;50.534;12.784;2023-02-05T09:38:18;9.98;;;5.55;;
73893;SDS011;62699;50.534;12.784;2023-02-05T09:43:37;8.55;;;3.70;;
73893;SDS011;62699;50.534;12.784;2023-02-05T09:49:06;8.95;;;4.40;;
73893;SDS011;62699;50.534;12.784;2023-02-05T09:54:15;8.52;;;4.90;;
73893;SDS011;62699;50.534;12.784;2023-02-05T09:59:24;33.55;;;13.40;;
73893;SDS011;62699;50.534;12.784;2023-02-05T10:04:26;9.73;;;5.78;;
73893;SDS011;62699;50.534;12.784;2023-02-05T10:09:49;8.57;;;4.93;;
73893;SDS011;62699;50.534;12.784;2023-02-05T10:31:04;10.15;;;5.50;;
73893;SDS011;62699;50.534;12.784;2023-02-05T10:36:14;9.32;;;4.32;;
73893;SDS011;62699;50.534;12.784;2023-02-05T10:41:30;13.07;;;6.88;;
73893;SDS011;62699;50.534;12.784;2023-02-05T10:46:37;11.02;;;5.20;;
73893;SDS011;62699;50.534;12.784;2023-02-05T10:51:40;10.15;;;4.40;;
73893;SDS011;62699;50.534;12.784;2023-02-05T10:56:42;9.63;;;5.20;;
73893;SDS011;62699;50.534;12.784;2023-02-05T11:01:43;8.40;;;4.40;;
73893;SDS011;62699;50.534;12.784;2023-02-05T11:06:47;7.22;;;4.38;;
73893;SDS011;62699;50.534;12.784;2023-02-05T11:11:49;8.32;;;5.18;;
73893;SDS011;62699;50.534;12.784;2023-02-05T11:16:51;7.97;;;4.20;;
73893;SDS011;62699;50.534;12.784;2023-02-05T11:21:53;8.77;;;5.00;;
73893;SDS011;62699;50.534;12.784;2023-02-05T11:27:10;8.43;;;4.45;;
73893;SDS011;62699;50.534;12.784;2023-02-05T11:32:32;8.83;;;4.50;;
73893;SDS011;62699;50.534;12.784;2023-02-05T11:37:37;10.50;;;5.30;;
73893;SDS011;62699;50.534;12.784;2023-02-05T11:42:39;8.20;;;4.90;;
73893;SDS011;62699;50.534;12.784;2023-02-05T11:47:39;11.48;;;4.25;;
73893;SDS011;62699;50.534;12.784;2023-02-05T11:52:39;8.45;;;4.47;;
73893;SDS011;62699;50.534;12.784;2023-02-05T11:57:40;9.22;;;3.98;;
73893;SDS011;62699;50.534;12.784;2023-02-05T12:02:41;7.95;;;3.85;;
73893;SDS011;62699;50.534;12.784;2023-02-05T12:08:05;7.88;;;3.35;;
73893;SDS011;62699;50.534;12.784;2023-02-05T12:13:19;7.75;;;3.83;;
73893;SDS011;62699;50.534;12.784;2023-02-05T12:18:28;7.38;;;4.00;;
73893;SDS011;62699;50.534;12.784;2023-02-05T12:23:43;10.35;;;4.57;;
73893;SDS011;62699;50.534;12.784;2023-02-05T12:39:45;8.35;;;4.85;;
73893;SDS011;62699;50.534;12.784;2023-02-05T12:49:59;8.98;;;4.65;;
73893;SDS011;62699;50.534;12.784;2023-02-05T13:05:32;5.22;;;2.88;;
73893;SDS011;62699;50.534;12.784;2023-02-05T13:10:42;5.78;;;3.00;;
73893;SDS011;62699;50.534;12.784;2023-02-05T13:15:54;5.82;;;3.45;;
73893;SDS011;62699;50.534;12.784;2023-02-05T13:21:04;8.00;;;3.47;;
73893;SDS011;62699;50.534;12.784;2023-02-05T13:26:30;6.15;;;3.67;;
73893;SDS011;62699;50.534;12.784;2023-02-05T13:31:53;7.72;;;3.65;;
73893;SDS011;62699;50.534;12.784;2023-02-05T13:42:24;13.43;;;6.18;;
73893;SDS011;62699;50.534;12.784;2023-02-05T13:47:45;5.55;;;2.97;;
73893;SDS011;62699;50.534;12.784;2023-02-05T14:09:02;6.10;;;2.80;;
73893;SDS011;62699;50.534;12.784;2023-02-05T14:19:17;5.18;;;2.78;;
73893;SDS011;62699;50.534;12.784;2023-02-05T14:24:39;6.60;;;2.90;;
73893;SDS011;62699;50.534;12.784;2023-02-05T14:29:45;18.95;;;8.32;;
73893;SDS011;62699;50.534;12.784;2023-02-05T14:34:47;8.23;;;4.28;;
73893;SDS011;62699;50.534;12.784;2023-02-05T14:39:56;7.05;;;3.83;;
73893;SDS011;62699;50.534;12.784;2023-02-05T14:44:57;7.78;;;4.45;;
73893;SDS011;62699;50.534;12.784;2023-02-05T14:50:04;7.05;;;3.88;;
73893;SDS011;62699;50.534;12.784;2023-02-05T15:05:36;7.53;;;4.28;;
73893;SDS011;62699;50.534;12.784;2023-02-05T15:10:47;9.25;;;4.90;;
73893;SDS011;62699;50.534;12.784;2023-02-05T15:21:14;9.23;;;5.18;;
73893;SDS011;62699;50.534;12.784;2023-02-05T15:26:29;12.82;;;6.40;;
73893;SDS011;62699;50.534;12.784;2023-02-05T15:31:40;9.90;;;5.30;;
73893;SDS011;62699;50.534;12.784;2023-02-05T15:36:52;15.15;;;7.13;;
73893;SDS011;62699;50.534;12.784;2023-02-05T15:41:55;14.93;;;7.57;;
73893;SDS011;62699;50.534;12.784;2023-02-05T15:46:59;22.73;;;9.82;;
73893;SDS011;62699;50.534;12.784;2023-02-05T15:52:03;14.77;;;7.68;;
73893;SDS011;62699;50.534;12.784;2023-02-05T15:57:04;11.10;;;6.57;;
73893;SDS011;62699;50.534;12.784;2023-02-05T16:02:07;11.50;;;5.88;;
73893;SDS011;62699;50.534;12.784;2023-02-05T16:07:18;9.18;;;5.03;;
73893;SDS011;62699;50.534;12.784;2023-02-05T16:12:27;10.30;;;5.13;;
73893;SDS011;62699;50.534;12.784;2023-02-05T16:17:31;8.27;;;5.18;;
73893;SDS011;62699;50.534;12.784;2023-02-05T16:22:36;10.68;;;5.85;;
73893;SDS011;62699;50.534;12.784;2023-02-05T16:27:40;10.30;;;6.25;;
73893;SDS011;62699;50.534;12.784;2023-02-05T16:32:44;10.75;;;6.22;;
73893;SDS011;62699;50.534;12.784;2023-02-05T16:37:45;20.13;;;10.25;;
73893;SDS011;62699;50.534;12.784;2023-02-05T16:42:46;25.67;;;11.80;;
73893;SDS011;62699;50.534;12.784;2023-02-05T16:53:22;10.60;;;5.75;;
73893;SDS011;62699;50.534;12.784;2023-02-05T16:58:25;10.32;;;5.78;;
73893;SDS011;62699;50.534;12.784;2023-02-05T17:03:35;10.98;;;5.88;;
73893;SDS011;62699;50.534;12.784;2023-02-05T17:08:38;11.30;;;7.38;;
73893;SDS011;62699;50.534;12.784;2023-02-05T17:13:40;14.50;;;7.57;;
73893;SDS011;62699;50.534;12.784;2023-02-05T17:18:41;15.27;;;8.18;;
73893;SDS011;62699;50.534;12.784;2023-02-05T17:23:51;16.23;;;8.55;;
73893;SDS011;62699;50.534;12.784;2023-02-05T17:28:57;14.35;;;7.90;;
73893;SDS011;62699;50.534;12.784;2023-02-05T17:34:04;18.20;;;9.77;;
73893;SDS011;62699;50.534;12.784;2023-02-05T17:39:05;13.75;;;7.78;;
73893;SDS011;62699;50.534;12.784;2023-02-05T17:44:05;12.10;;;7.55;;
73893;SDS011;62699;50.534;12.784;2023-02-05T17:49:07;15.70;;;8.00;;
73893;SDS011;62699;50.534;12.784;2023-02-05T17:54:10;12.05;;;7.63;;
73893;SDS011;62699;50.534;12.784;2023-02-05T17:59:15;13.40;;;6.65;;
73893;SDS011;62699;50.534;12.784;2023-02-05T18:04:17;15.98;;;6.80;;
73893;SDS011;62699;50.534;12.784;2023-02-05T18:09:18;11.45;;;7.18;;
73893;SDS011;62699;50.534;12.784;2023-02-05T18:14:18;14.95;;;7.10;;
73893;SDS011;62699;50.534;12.784;2023-02-05T18:19:19;11.80;;;7.60;;
73893;SDS011;62699;50.534;12.784;2023-02-05T18:24:19;18.15;;;9.55;;
73893;SDS011;62699;50.534;12.784;2023-02-05T18:29:19;13.40;;;7.97;;
73893;SDS011;62699;50.534;12.784;2023-02-05T18:34:20;15.10;;;7.97;;
73893;SDS011;62699;50.534;12.784;2023-02-05T18:39:20;14.70;;;9.40;;
73893;SDS011;62699;50.534;12.784;2023-02-05T18:44:21;13.98;;;7.80;;
73893;SDS011;62699;50.534;12.784;2023-02-05T18:49:22;15.10;;;7.25;;
73893;SDS011;62699;50.534;12.784;2023-02-05T18:54:22;14.60;;;7.22;;
73893;SDS011;62699;50.534;12.784;2023-02-05T18:59:22;14.20;;;7.35;;
73893;SDS011;62699;50.534;12.784;2023-02-05T19:04:25;14.35;;;7.57;;
73893;SDS011;62699;50.534;12.784;2023-02-05T19:09:26;12.00;;;6.78;;
73893;SDS011;62699;50.534;12.784;2023-02-05T19:14:27;13.40;;;8.43;;
73893;SDS011;62699;50.534;12.784;2023-02-05T19:19:28;11.88;;;6.85;;
73893;SDS011;62699;50.534;12.784;2023-02-05T19:24:30;14.50;;;7.97;;
73893;SDS011;62699;50.534;12.784;2023-02-05T19:29:30;20.67;;;9.98;;
73893;SDS011;62699;50.534;12.784;2023-02-05T19:34:39;17.23;;;8.52;;
73893;SDS011;62699;50.534;12.784;2023-02-05T19:39:42;16.00;;;8.50;;
73893;SDS011;62699;50.534;12.784;2023-02-05T19:44:42;15.06;;;7.72;;
73893;SDS011;62699;50.534;12.784;2023-02-05T19:49:46;12.20;;;7.18;;
73893;SDS011;62699;50.534;12.784;2023-02-05T19:54:46;11.65;;;6.35;;
73893;SDS011;62699;50.534;12.784;2023-02-05T19:59:53;10.02;;;6.05;;
73893;SDS011;62699;50.534;12.784;2023-02-05T20:04:54;11.85;;;6.88;;
73893;SDS011;62699;50.534;12.784;2023-02-05T20:09:54;13.32;;;6.70;;
73893;SDS011;62699;50.534;12.784;2023-02-05T20:14:54;10.25;;;6.20;;
73893;SDS011;62699;50.534;12.784;2023-02-05T20:19:55;13.98;;;6.95;;
73893;SDS011;62699;50.534;12.784;2023-02-05T20:24:56;11.04;;;6.16;;
73893;SDS011;62699;50.534;12.784;2023-02-05T20:29:59;41.35;;;18.00;;
73893;SDS011;62699;50.534;12.784;2023-02-05T20:35:18;13.63;;;7.78;;
73893;SDS011;62699;50.534;12.784;2023-02-05T20:40:19;13.20;;;7.18;;
73893;SDS011;62699;50.534;12.784;2023-02-05T20:45:20;11.90;;;6.18;;
73893;SDS011;62699;50.534;12.784;2023-02-05T20:50:20;10.38;;;5.60;;
73893;SDS011;62699;50.534;12.784;2023-02-05T20:55:20;10.40;;;6.08;;
73893;SDS011;62699;50.534;12.784;2023-02-05T21:00:20;11.84;;;6.10;;
73893;SDS011;62699;50.534;12.784;2023-02-05T21:05:22;10.93;;;6.45;;
73893;SDS011;62699;50.534;12.784;2023-02-05T21:10:22;11.05;;;5.50;;
73893;SDS011;62699;50.534;12.784;2023-02-05T21:15:23;10.50;;;5.60;;
73893;SDS011;62699;50.534;12.784;2023-02-05T21:20:23;9.10;;;5.28;;
73893;SDS011;62699;50.534;12.784;2023-02-05T21:25:23;9.70;;;4.93;;
73893;SDS011;62699;50.534;12.784;2023-02-05T21:30:24;9.60;;;5.40;;
73893;SDS011;62699;50.534;12.784;2023-02-05T21:35:24;8.60;;;5.38;;
73893;SDS011;62699;50.534;12.784;2023-02-05T21:40:24;7.80;;;4.78;;
73893;SDS011;62699;50.534;12.784;2023-02-05T21:45:24;10.13;;;5.15;;
73893;SDS011;62699;50.534;12.784;2023-02-05T21:50:25;10.32;;;5.28;;
73893;SDS011;62699;50.534;12.784;2023-02-05T21:55:25;12.88;;;6.20;;
73893;SDS011;62699;50.534;12.784;2023-02-05T22:00:26;10.63;;;5.28;;
73893;SDS011;62699;50.534;12.784;2023-02-05T22:05:32;11.27;;;5.25;;
73893;SDS011;62699;50.534;12.784;2023-02-05T22:10:33;13.23;;;5.72;;
73893;SDS011;62699;50.534;12.784;2023-02-05T22:15:33;12.27;;;5.97;;
73893;SDS011;62699;50.534;12.784;2023-02-05T22:20:33;13.23;;;6.32;;
73893;SDS011;62699;50.534;12.784;2023-02-05T22:25:48;10.00;;;5.32;;
73893;SDS011;62699;50.534;12.784;2023-02-05T22:30:48;10.93;;;5.07;;
73893;SDS011;62699;50.534;12.784;2023-02-05T22:35:52;9.98;;;4.97;;
73893;SDS011;62699;50.534;12.784;2023-02-05T22:40:52;9.13;;;4.68;;
73893;SDS011;62699;50.534;12.784;2023-02-05T22:45:52;9.02;;;5.18;;
73893;SDS011;62699;50.534;12.784;2023-02-05T22:50:53;8.48;;;5.28;;
73893;SDS011;62699;50.534;12.784;2023-02-05T22:55:53;8.82;;;4.70;;
73893;SDS011;62699;50.534;12.784;2023-02-05T23:00:53;11.02;;;5.28;;
73893;SDS011;62699;50.534;12.784;2023-02-05T23:05:54;7.75;;;4.50;;
73893;SDS011;62699;50.534;12.784;2023-02-05T23:10:54;9.27;;;4.88;;
73893;SDS011;62699;50.534;12.784;2023-02-05T23:15:55;8.68;;;4.55;;
73893;SDS011;62699;50.534;12.784;2023-02-05T23:20:55;11.27;;;5.00;;
73893;SDS011;62699;50.534;12.784;2023-02-05T23:25:55;7.70;;;4.57;;
73893;SDS011;62699;50.534;12.784;2023-02-05T23:30:55;9.58;;;5.16;;
73893;SDS011;62699;50.534;12.784;2023-02-05T23:35:56;8.88;;;4.88;;
73893;SDS011;62699;50.534;12.784;2023-02-05T23:40:57;7.95;;;4.55;;
73893;SDS011;62699;50.534;12.784;2023-02-05T23:45:57;6.80;;;4.35;;
73893;SDS011;62699;50.534;12.784;2023-02-05T23:50:58;7.72;;;4.43;;
73893;SDS011;62699;50.534;12.784;2023-02-05T23:55:59;10.15;;;4.78;;
